createdAt,value
2018-09-05T00:00:37.416Z,21.20
2018-09-05T00:03:08.147Z,21.23
2018-09-05T00:05:38.815Z,21.56
2018-09-05T00:08:09.511Z,21.95
2018-09-05T00:10:40.242Z,21.62
2018-09-05T00:13:10.703Z,21.22
2018-09-05T00:15:41.218Z,21.03
2018-09-05T00:18:11.954Z,20.83
2018-09-05T00:20:42.265Z,21.03
2018-09-05T00:23:13.909Z,21.21
2018-09-05T00:25:44.633Z,21.30
2018-09-05T00:28:15.282Z,21.67
2018-09-05T00:30:45.655Z,21.47
2018-09-05T00:33:17.501Z,21.39
2018-09-05T00:35:48.044Z,21.56
2018-09-05T00:38:18.335Z,21.19
2018-09-05T00:40:48.925Z,21.34
2018-09-05T00:43:20.539Z,21.36
2018-09-05T00:45:50.998Z,21.10
2018-09-05T00:48:21.558Z,21.48
2018-09-05T00:50:51.991Z,21.75
2018-09-05T00:53:23.434Z,21.77
2018-09-05T00:55:53.928Z,21.62
2018-09-05T00:58:24.610Z,21.38
2018-09-05T01:00:55.126Z,20.90
2018-09-05T01:03:26.050Z,21.20
2018-09-05T01:05:56.585Z,21.43
2018-09-05T01:08:26.989Z,21.50
2018-09-05T01:10:57.730Z,21.33
2018-09-05T01:13:29.495Z,20.45
2018-09-05T01:16:00.139Z,20.65
2018-09-05T01:18:30.649Z,21.12
2018-09-05T01:21:01.256Z,21.23
2018-09-05T01:23:32.138Z,21.27
2018-09-05T01:26:02.761Z,21.23
2018-09-05T01:28:32.859Z,20.26
2018-09-05T01:31:03.427Z,20.15
2018-09-05T01:33:37.060Z,20.72
2018-09-05T01:36:13.369Z,20.91
2018-09-05T01:38:44.439Z,21.16
2018-09-05T01:41:15.558Z,21.25
2018-09-05T01:43:47.025Z,21.16
2018-09-05T01:46:17.723Z,21.22
2018-09-05T01:48:48.122Z,21.11
2018-09-05T01:51:18.595Z,21.27
2018-09-05T01:53:50.443Z,21.34
2018-09-05T01:56:20.834Z,21.46
2018-09-05T01:58:51.209Z,21.05
2018-09-05T02:01:22.032Z,21.21
2018-09-05T02:03:52.330Z,21.38
2018-09-05T02:06:22.787Z,21.28
2018-09-05T02:08:53.089Z,20.92
2018-09-05T02:11:24.332Z,20.96
2018-09-05T02:13:55.481Z,21.03
2018-09-05T02:16:25.714Z,21.02
2018-09-05T02:18:56.208Z,21.01
2018-09-05T02:21:26.674Z,21.23
2018-09-05T02:23:57.628Z,21.15
2018-09-05T02:26:28.226Z,21.24
2018-09-05T02:28:58.578Z,21.15
2018-09-05T02:31:29.234Z,20.95
2018-09-05T02:34:00.202Z,20.77
2018-09-05T02:36:30.539Z,20.95
2018-09-05T02:39:01.103Z,21.14
2018-09-05T02:41:31.514Z,20.56
2018-09-05T02:44:32.754Z,19.19
2018-09-05T02:47:03.123Z,19.20
2018-09-05T02:49:33.906Z,19.75
2018-09-05T02:52:04.452Z,20.34
2018-09-05T02:54:35.096Z,20.10
2018-09-05T02:57:05.539Z,19.93
2018-09-05T02:59:36.521Z,19.75
2018-09-05T03:02:07.119Z,19.80
2018-09-05T03:04:37.378Z,19.47
2018-09-05T03:07:07.907Z,19.48
2018-09-05T03:09:38.494Z,19.76
2018-09-05T03:12:09.533Z,19.54
2018-09-05T03:14:40.075Z,19.07
2018-09-05T03:17:10.660Z,18.88
2018-09-05T03:19:41.684Z,18.93
2018-09-05T03:22:13.411Z,19.48
2018-09-05T03:24:43.853Z,19.55
2018-09-05T03:27:14.029Z,18.96
2018-09-05T03:29:44.729Z,18.90
2018-09-05T03:32:15.542Z,19.23
2018-09-05T03:34:45.952Z,19.32
2018-09-05T03:37:16.457Z,19.49
2018-09-05T03:39:47.132Z,19.30
2018-09-05T03:42:18.730Z,18.93
2018-09-05T03:44:49.630Z,19.12
2018-09-05T03:47:20.026Z,18.96
2018-09-05T03:49:50.616Z,19.11
2018-09-05T03:52:21.138Z,18.97
2018-09-05T03:54:51.377Z,19.34
2018-09-05T03:57:21.472Z,19.65
2018-09-05T03:59:51.751Z,19.70
2018-09-05T04:02:23.072Z,19.80
2018-09-05T04:04:53.845Z,19.99
2018-09-05T04:07:24.294Z,19.87
2018-09-05T04:09:55.220Z,19.92
2018-09-05T04:12:27.480Z,19.68
2018-09-05T04:14:57.838Z,19.86
2018-09-05T04:17:28.275Z,19.82
2018-09-05T04:19:58.881Z,19.85
2018-09-05T04:22:30.294Z,19.86
2018-09-05T04:25:00.995Z,19.88
2018-09-05T04:27:31.701Z,19.92
2018-09-05T04:30:02.227Z,19.88
2018-09-05T04:32:32.558Z,20.09
2018-09-05T04:35:03.244Z,20.07
2018-09-05T04:37:33.633Z,20.17
2018-09-05T04:40:04.333Z,20.26
2018-09-05T04:42:36.182Z,20.31
2018-09-05T04:45:07.385Z,20.30
2018-09-05T04:47:38.134Z,20.36
2018-09-05T04:50:08.387Z,20.33
2018-09-05T04:52:39.412Z,20.71
2018-09-05T04:55:09.907Z,20.51
2018-09-05T04:57:40.299Z,20.65
2018-09-05T05:00:10.759Z,20.60
2018-09-05T05:02:41.160Z,20.29
2018-09-05T05:05:11.775Z,19.83
2018-09-05T05:07:42.251Z,18.43
2018-09-05T05:10:12.911Z,19.96
2018-09-05T05:12:44.556Z,19.72
2018-09-05T05:15:15.378Z,19.26
2018-09-05T05:17:46.061Z,19.84
2018-09-05T05:20:16.662Z,19.88
2018-09-05T05:22:47.271Z,20.37
2018-09-05T05:25:17.857Z,20.85
2018-09-05T05:27:48.502Z,21.02
2018-09-05T05:30:19.197Z,20.98
2018-09-05T05:32:50.890Z,20.75
2018-09-05T05:35:21.462Z,21.23
2018-09-05T05:37:52.090Z,21.03
2018-09-05T05:40:22.636Z,21.44
2018-09-05T05:42:53.379Z,21.74
2018-09-05T05:45:24.022Z,21.38
2018-09-05T05:47:54.443Z,21.05
2018-09-05T05:50:24.845Z,21.48
2018-09-05T05:52:56.182Z,21.77
2018-09-05T05:55:26.811Z,21.48
2018-09-05T05:57:57.419Z,21.16
2018-09-05T06:00:27.957Z,21.39
2018-09-05T06:02:58.739Z,22.27
2018-09-05T06:05:28.610Z,21.83
2018-09-05T06:07:58.363Z,21.94
2018-09-05T06:10:28.873Z,22.95
2018-09-05T06:12:59.456Z,22.85
2018-09-05T06:15:29.788Z,23.06
2018-09-05T06:17:59.782Z,23.22
2018-09-05T06:20:29.486Z,23.95
2018-09-05T06:22:59.516Z,24.17
2018-09-05T06:25:29.368Z,24.61
2018-09-05T06:27:59.370Z,25.31
2018-09-05T06:30:29.356Z,25.06
2018-09-05T06:32:59.443Z,24.40
2018-09-05T06:35:29.194Z,25.04
2018-09-05T06:37:59.206Z,25.60
2018-09-05T06:40:29.122Z,25.62
2018-09-05T06:42:58.987Z,25.63
2018-09-05T06:45:28.835Z,25.57
2018-09-05T06:47:58.603Z,26.08
2018-09-05T06:50:28.449Z,25.73
2018-09-05T06:52:58.138Z,26.14
2018-09-05T06:55:27.906Z,26.48
2018-09-05T06:57:57.944Z,27.30
2018-09-05T07:00:28.782Z,28.20
2018-09-05T07:03:00.254Z,27.43
2018-09-05T07:05:30.941Z,28.17
2018-09-05T07:08:01.227Z,27.52
2018-09-05T07:10:31.659Z,27.55
2018-09-05T07:13:03.097Z,27.77
2018-09-05T07:15:33.895Z,28.65
2018-09-05T07:18:04.306Z,28.43
2018-09-05T07:20:34.447Z,28.46
2018-09-05T07:23:05.824Z,28.27
2018-09-05T07:25:36.526Z,27.23
2018-09-05T07:28:07.108Z,27.41
2018-09-05T07:30:37.792Z,28.22
2018-09-05T07:33:08.490Z,28.73
2018-09-05T07:35:38.314Z,29.31
2018-09-05T07:38:08.249Z,29.27
2018-09-05T07:40:38.123Z,29.19
2018-09-05T07:43:08.059Z,29.96
2018-09-05T07:45:38.419Z,29.83
2018-09-05T07:48:08.222Z,30.14
2018-09-05T07:50:38.083Z,30.08
2018-09-05T07:53:07.916Z,30.42
2018-09-05T07:55:37.600Z,29.55
2018-09-05T07:58:07.438Z,30.36
2018-09-05T08:00:37.219Z,30.63
2018-09-05T08:03:07.052Z,30.56
2018-09-05T08:06:27.032Z,30.33
2018-09-05T08:08:57.548Z,31.00
2018-09-05T08:11:28.401Z,31.54
2018-09-05T08:13:59.261Z,32.70
2018-09-05T08:16:29.952Z,33.12
2018-09-05T08:19:00.524Z,34.18
2018-09-05T08:21:30.959Z,33.96
2018-09-05T08:24:01.497Z,34.79
2018-09-05T08:26:31.908Z,33.81
2018-09-05T08:29:02.547Z,33.52
2018-09-05T08:31:32.935Z,33.19
2018-09-05T08:34:03.771Z,33.50
2018-09-05T08:36:34.611Z,34.24
2018-09-05T08:39:05.620Z,34.52
2018-09-05T08:41:36.019Z,34.90
2018-09-05T08:44:06.587Z,35.77
2018-09-05T08:46:36.893Z,35.18
2018-09-05T08:49:07.637Z,33.50
2018-09-05T08:51:37.917Z,34.19
2018-09-05T08:54:09.673Z,34.81
2018-09-05T08:56:40.172Z,35.69
2018-09-05T08:59:10.949Z,36.70
2018-09-05T09:01:41.262Z,35.56
2018-09-05T09:04:12.083Z,36.15
2018-09-05T09:06:42.795Z,36.18
2018-09-05T09:09:13.625Z,35.49
2018-09-05T09:11:50.867Z,35.98
2018-09-05T09:14:22.086Z,34.63
2018-09-05T09:16:53.007Z,35.02
2018-09-05T09:19:23.587Z,34.67
2018-09-05T09:21:54.114Z,33.35
2018-09-05T09:24:25.267Z,33.43
2018-09-05T09:26:55.917Z,33.30
2018-09-05T09:29:26.526Z,32.75
2018-09-05T09:31:57.138Z,31.97
2018-09-05T09:34:28.565Z,31.77
2018-09-05T09:36:59.059Z,30.88
2018-09-05T09:39:29.427Z,29.93
2018-09-05T09:41:59.849Z,30.28
2018-09-05T09:44:30.773Z,30.01
2018-09-05T09:47:01.458Z,31.12
2018-09-05T09:49:31.871Z,31.16
2018-09-05T09:52:07.147Z,31.09
2018-09-05T09:54:38.788Z,32.45
2018-09-05T09:57:09.345Z,33.51
2018-09-05T09:59:39.987Z,34.57
2018-09-05T10:02:15.444Z,34.70
2018-09-05T10:04:51.623Z,35.27
2018-09-05T10:07:27.370Z,34.59
2018-09-05T10:11:05.236Z,35.51
2018-09-05T10:13:40.922Z,34.67
2018-09-05T10:16:16.365Z,35.13
2018-09-05T10:18:48.839Z,34.76
2018-09-05T10:21:19.375Z,34.81
2018-09-05T10:23:51.189Z,33.74
2018-09-05T10:26:21.716Z,34.15
2018-09-05T10:28:52.422Z,34.41
2018-09-05T10:31:23.178Z,35.04
2018-09-05T10:33:53.724Z,34.72
2018-09-05T10:36:24.376Z,34.04
2018-09-05T10:38:54.583Z,33.97
2018-09-05T10:41:25.315Z,33.82
2018-09-05T10:43:56.733Z,34.27
2018-09-05T10:46:27.236Z,34.07
2018-09-05T10:48:57.989Z,34.94
2018-09-05T10:51:33.279Z,33.63
2018-09-05T10:54:04.510Z,33.53
2018-09-05T10:56:35.343Z,34.24
2018-09-05T10:59:06.162Z,32.82
2018-09-05T11:01:36.903Z,31.71
2018-09-05T11:04:08.634Z,32.02
2018-09-05T11:06:39.339Z,31.69
2018-09-05T11:09:12.019Z,32.26
2018-09-05T11:11:42.998Z,31.71
2018-09-05T11:14:14.338Z,31.32
2018-09-05T11:16:44.773Z,32.08
2018-09-05T11:19:14.965Z,33.14
2018-09-05T11:21:45.781Z,33.09
2018-09-05T11:24:17.350Z,33.41
2018-09-05T11:26:47.994Z,32.78
2018-09-05T11:29:18.876Z,33.28
2018-09-05T11:31:49.611Z,33.74
2018-09-05T11:34:20.749Z,32.62
2018-09-05T11:36:51.206Z,31.72
2018-09-05T11:39:21.710Z,32.27
2018-09-05T11:41:51.797Z,33.24
2018-09-05T11:44:23.022Z,35.05
2018-09-05T11:46:53.503Z,34.58
2018-09-05T11:49:24.435Z,34.65
2018-09-05T11:51:54.754Z,34.61
2018-09-05T11:54:25.567Z,34.46
2018-09-05T11:56:56.018Z,33.11
2018-09-05T11:59:26.634Z,34.16
2018-09-05T12:01:57.355Z,34.70
2018-09-05T12:04:28.715Z,34.34
2018-09-05T12:06:59.527Z,33.63
2018-09-05T12:09:29.978Z,33.88
2018-09-05T12:12:00.583Z,34.99
2018-09-05T12:14:32.182Z,35.26
2018-09-05T12:17:02.448Z,36.55
2018-09-05T12:19:32.630Z,34.97
2018-09-05T12:22:02.912Z,35.88
2018-09-05T12:24:33.227Z,36.02
2018-09-05T12:27:03.858Z,34.07
2018-09-05T12:29:34.157Z,34.54
2018-09-05T12:32:05.120Z,34.39
2018-09-05T12:34:36.060Z,34.59
2018-09-05T12:37:06.594Z,33.88
2018-09-05T12:39:37.029Z,34.00
2018-09-05T12:42:07.802Z,33.02
2018-09-05T12:44:38.757Z,31.48
2018-09-05T12:47:09.231Z,31.26
2018-09-05T12:49:40.126Z,31.74
2018-09-05T12:52:10.490Z,31.39
2018-09-05T12:54:41.947Z,31.26
2018-09-05T12:57:12.446Z,31.43
2018-09-05T12:59:42.959Z,31.00
2018-09-05T13:02:13.614Z,31.31
2018-09-05T13:04:44.749Z,30.95
2018-09-05T13:07:15.580Z,30.92
2018-09-05T13:09:45.654Z,31.58
2018-09-05T13:12:16.105Z,30.62
2018-09-05T13:14:47.115Z,31.08
2018-09-05T13:17:17.589Z,30.85
2018-09-05T13:19:48.100Z,30.52
2018-09-05T13:22:18.371Z,30.08
2018-09-05T13:24:49.265Z,29.57
2018-09-05T13:27:19.834Z,28.61
2018-09-05T13:29:50.098Z,27.50
2018-09-05T13:32:20.662Z,27.62
2018-09-05T13:34:51.415Z,27.27
2018-09-05T13:37:21.941Z,27.68
2018-09-05T13:39:52.861Z,26.78
2018-09-05T13:42:23.229Z,26.72
2018-09-05T13:44:54.294Z,26.55
2018-09-05T13:47:24.627Z,26.26
2018-09-05T13:49:54.348Z,26.40
2018-09-05T13:52:24.178Z,25.44
2018-09-05T13:54:54.803Z,25.11
2018-09-05T13:57:55.455Z,25.06
2018-09-05T14:00:25.286Z,25.52
2018-09-05T14:02:55.208Z,25.47
2018-09-05T14:05:25.147Z,25.41
2018-09-05T14:07:54.966Z,25.51
2018-09-05T14:10:24.861Z,25.50
2018-09-05T14:12:54.755Z,24.98
2018-09-05T14:15:24.585Z,24.91
2018-09-05T14:17:54.264Z,25.43
2018-09-05T14:20:24.147Z,25.19
2018-09-05T14:22:53.903Z,25.01
2018-09-05T14:25:23.747Z,26.15
2018-09-05T14:27:53.563Z,26.65
2018-09-05T14:30:23.332Z,27.10
2018-09-05T14:32:53.284Z,26.73
2018-09-05T14:35:23.023Z,25.21
2018-09-05T14:37:52.806Z,25.88
2018-09-05T14:40:22.437Z,26.18
2018-09-05T14:42:52.215Z,25.57
2018-09-05T14:45:21.918Z,25.13
2018-09-05T14:47:51.594Z,24.98
2018-09-05T14:50:22.038Z,24.75
2018-09-05T14:52:51.824Z,25.13
2018-09-05T14:55:21.700Z,24.41
2018-09-05T14:57:51.498Z,24.60
2018-09-05T15:00:21.286Z,25.96
2018-09-05T15:02:51.208Z,25.86
2018-09-05T15:05:21.034Z,25.34
2018-09-05T15:07:51.949Z,25.12
2018-09-05T15:10:21.735Z,26.41
2018-09-05T15:12:52.222Z,26.27
2018-09-05T15:15:22.107Z,25.71
2018-09-05T15:17:51.940Z,26.08
2018-09-05T15:20:21.776Z,26.80
2018-09-05T15:22:51.628Z,26.19
2018-09-05T15:25:21.441Z,25.52
2018-09-05T15:27:51.060Z,25.62
2018-09-05T15:30:20.846Z,25.17
2018-09-05T15:32:50.674Z,24.61
2018-09-05T15:35:20.537Z,24.81
2018-09-05T15:37:50.362Z,24.62
2018-09-05T15:40:20.210Z,24.62
2018-09-05T15:42:49.886Z,25.24
2018-09-05T15:45:19.728Z,24.83
2018-09-05T15:47:49.502Z,24.95
2018-09-05T15:50:19.251Z,24.69
2018-09-05T15:52:49.206Z,23.90
2018-09-05T15:55:19.236Z,24.16
2018-09-05T15:57:49.044Z,24.23
2018-09-05T16:00:18.768Z,24.16
2018-09-05T16:02:48.606Z,24.12
2018-09-05T16:05:18.205Z,23.77
2018-09-05T16:07:48.019Z,23.82
2018-09-05T16:10:17.825Z,23.73
2018-09-05T16:12:47.593Z,23.44
2018-09-05T16:15:17.372Z,23.32
2018-09-05T16:17:47.172Z,23.69
2018-09-05T16:20:16.935Z,23.61
2018-09-05T16:22:46.775Z,24.07
2018-09-05T16:25:16.635Z,23.95
2018-09-05T16:27:46.333Z,23.32
2018-09-05T16:30:16.072Z,23.81
2018-09-05T16:32:45.918Z,23.61
2018-09-05T16:35:15.659Z,23.35
2018-09-05T16:37:45.376Z,23.32
2018-09-05T16:40:15.243Z,23.18
2018-09-05T16:42:45.076Z,23.73
2018-09-05T16:45:14.975Z,23.60
2018-09-05T16:47:44.750Z,23.97
2018-09-05T16:50:14.681Z,24.05
2018-09-05T16:52:44.562Z,23.98
2018-09-05T16:55:14.722Z,23.66
2018-09-05T16:57:44.705Z,23.17
2018-09-05T17:00:14.528Z,23.22
2018-09-05T17:02:44.212Z,23.22
2018-09-05T17:05:13.985Z,23.69
2018-09-05T17:07:43.872Z,23.54
2018-09-05T17:10:13.784Z,23.68
2018-09-05T17:12:43.602Z,24.06
2018-09-05T17:15:13.174Z,24.17
2018-09-05T17:17:42.808Z,24.13
2018-09-05T17:20:12.500Z,24.19
2018-09-05T17:22:42.258Z,24.32
2018-09-05T17:25:12.013Z,24.11
2018-09-05T17:27:41.850Z,24.23
2018-09-05T17:30:11.616Z,24.29
2018-09-05T17:32:41.446Z,23.67
2018-09-05T17:35:11.333Z,23.88
2018-09-05T17:37:41.254Z,23.92
2018-09-05T17:40:11.056Z,23.97
2018-09-05T17:42:40.927Z,24.13
2018-09-05T17:45:10.788Z,24.10
2018-09-05T17:47:40.760Z,23.94
2018-09-05T17:50:10.631Z,24.03
2018-09-05T17:52:40.490Z,24.09
2018-09-05T17:55:10.347Z,23.94
2018-09-05T17:57:40.568Z,24.08
2018-09-05T18:00:10.496Z,23.44
2018-09-05T18:02:40.358Z,23.68
2018-09-05T18:05:10.215Z,22.80
2018-09-05T18:07:40.128Z,22.90
2018-09-05T18:10:09.964Z,22.37
2018-09-05T18:12:39.681Z,22.38
2018-09-05T18:15:09.770Z,22.95
2018-09-05T18:17:39.441Z,23.44
2018-09-05T18:20:09.243Z,23.75
2018-09-05T18:22:39.578Z,23.75
2018-09-05T18:25:10.199Z,23.48
2018-09-05T18:27:40.387Z,23.16
2018-09-05T18:30:10.939Z,23.13
2018-09-05T18:32:42.003Z,23.33
2018-09-05T18:35:12.642Z,23.09
2018-09-05T18:37:43.503Z,23.10
2018-09-05T18:40:13.832Z,22.62
2018-09-05T18:42:45.076Z,22.14
2018-09-05T18:45:15.542Z,22.14
2018-09-05T18:47:46.129Z,22.51
2018-09-05T18:50:16.870Z,23.04
2018-09-05T18:52:48.596Z,23.38
2018-09-05T18:55:18.839Z,22.73
2018-09-05T18:57:49.110Z,22.34
2018-09-05T19:00:18.892Z,22.88
2018-09-05T19:02:49.519Z,22.94
2018-09-05T19:05:19.543Z,22.90
2018-09-05T19:07:50.041Z,23.06
2018-09-05T19:10:20.834Z,22.50
2018-09-05T19:12:51.782Z,22.62
2018-09-05T19:15:21.638Z,22.72
2018-09-05T19:17:51.554Z,22.63
2018-09-05T19:20:21.893Z,22.98
2018-09-05T19:22:51.878Z,23.24
2018-09-05T19:25:21.720Z,23.24
2018-09-05T19:27:51.530Z,23.06
2018-09-05T19:30:21.307Z,23.07
2018-09-05T19:32:51.256Z,23.28
2018-09-05T19:35:21.780Z,23.18
2018-09-05T19:37:52.456Z,23.18
2018-09-05T19:40:23.221Z,23.28
2018-09-05T19:42:53.947Z,23.51
2018-09-05T19:45:23.772Z,23.56
2018-09-05T19:47:53.485Z,23.48
2018-09-05T19:50:23.301Z,23.49
2018-09-05T19:52:53.039Z,23.28
2018-09-05T19:55:22.918Z,22.73
2018-09-05T19:57:53.128Z,22.14
2018-09-05T20:00:22.884Z,21.39
2018-09-05T20:02:52.719Z,21.68
2018-09-05T20:05:22.426Z,22.33
2018-09-05T20:07:52.238Z,22.74
2018-09-05T20:10:22.367Z,21.97
2018-09-05T20:12:52.645Z,21.40
2018-09-05T20:15:22.948Z,21.36
2018-09-05T20:17:53.449Z,21.10
2018-09-05T20:20:23.953Z,21.88
2018-09-05T20:22:54.353Z,21.97
2018-09-05T20:25:24.915Z,22.34
2018-09-05T20:27:55.527Z,22.55
2018-09-05T20:30:26.218Z,22.90
2018-09-05T20:32:57.592Z,22.83
2018-09-05T20:35:28.111Z,22.23
2018-09-05T20:37:58.234Z,21.14
2018-09-05T20:40:28.530Z,20.44
2018-09-05T20:43:00.179Z,20.06
2018-09-05T20:45:30.838Z,20.53
2018-09-05T20:48:01.912Z,21.05
2018-09-05T20:50:32.512Z,21.74
2018-09-05T20:53:03.959Z,21.28
2018-09-05T20:55:34.302Z,21.11
2018-09-05T20:58:04.906Z,21.37
2018-09-05T21:00:35.244Z,20.99
2018-09-05T21:03:06.607Z,21.60
2018-09-05T21:05:37.027Z,21.92
2018-09-05T21:08:07.945Z,22.07
2018-09-05T21:10:38.214Z,22.04
2018-09-05T21:13:08.624Z,22.11
2018-09-05T21:15:38.959Z,22.14
2018-09-05T21:18:09.790Z,21.43
2018-09-05T21:20:40.521Z,20.90
2018-09-05T21:23:11.519Z,20.54
2018-09-05T21:25:42.016Z,20.42
2018-09-05T21:28:11.731Z,21.08
2018-09-05T21:30:42.489Z,20.93
2018-09-05T21:33:14.158Z,20.54
2018-09-05T21:35:44.807Z,20.76
2018-09-05T21:38:15.051Z,21.20
2018-09-05T21:40:45.906Z,21.68
2018-09-05T21:43:17.095Z,21.68
2018-09-05T21:45:47.572Z,21.84
2018-09-05T21:48:18.267Z,21.48
2018-09-05T21:50:48.028Z,21.75
2018-09-05T21:53:18.964Z,21.84
2018-09-05T21:55:49.455Z,21.70
2018-09-05T21:58:19.810Z,21.78
2018-09-05T22:00:50.445Z,21.80
2018-09-05T22:03:20.582Z,21.97
2018-09-05T22:05:50.252Z,21.84
2018-09-05T22:08:20.123Z,21.80
2018-09-05T22:10:50.037Z,21.97
2018-09-05T22:13:19.989Z,21.94
2018-09-05T22:15:49.792Z,22.20
2018-09-05T22:18:19.659Z,22.09
2018-09-05T22:20:49.516Z,22.01
2018-09-05T22:23:19.226Z,21.96
2018-09-05T22:25:49.118Z,21.83
2018-09-05T22:28:18.899Z,21.93
2018-09-05T22:30:48.658Z,21.85
2018-09-05T22:33:18.437Z,21.77
2018-09-05T22:35:48.243Z,21.74
2018-09-05T22:38:18.124Z,21.46
2018-09-05T22:40:54.935Z,21.40
2018-09-05T22:43:37.247Z,21.72
2018-09-05T22:46:17.747Z,21.85
2018-09-05T22:48:58.220Z,21.42
2018-09-05T22:52:13.697Z,21.77
2018-09-05T22:57:07.095Z,21.90
2018-09-05T23:00:23.955Z,21.63
2018-09-05T23:03:10.137Z,21.83
2018-09-05T23:06:04.158Z,20.76
2018-09-05T23:08:40.799Z,21.50
2018-09-05T23:12:23.182Z,21.33
2018-09-05T23:15:04.088Z,21.51
2018-09-05T23:17:44.600Z,21.25
2018-09-05T23:20:42.889Z,21.25
2018-09-05T23:23:23.440Z,21.42
2018-09-05T23:25:53.113Z,21.59
2018-09-05T23:28:22.935Z,21.76
2018-09-05T23:30:52.752Z,21.74
2018-09-05T23:33:22.535Z,21.43
2018-09-05T23:35:52.295Z,21.30
2018-09-05T23:38:22.055Z,21.19
2018-09-05T23:40:51.713Z,21.02
2018-09-05T23:43:21.436Z,20.81
2018-09-05T23:45:51.276Z,20.82
2018-09-05T23:48:21.238Z,20.69
2018-09-05T23:50:51.153Z,20.59
2018-09-05T23:53:20.925Z,20.50
2018-09-05T23:55:50.671Z,20.24
2018-09-05T23:58:20.479Z,20.74
